sensor_id;sensor_type;location;lat;lon;timestamp;pressure;altitude;pressure_sealevel;temperature;humidity
77212;BME280;66206;0.000;0.000;2023-08-07T00:01:41;97182.35;;;22.38;33.77
77212;BME280;66206;0.000;0.000;2023-08-07T00:04:08;97177.23;;;22.32;33.86
77212;BME280;66206;0.000;0.000;2023-08-07T00:06:35;97178.58;;;22.31;33.89
77212;BME280;66206;0.000;0.000;2023-08-07T00:09:01;97173.54;;;22.34;33.89
77212;BME280;66206;0.000;0.000;2023-08-07T00:11:28;97185.78;;;22.03;34.28
77212;BME280;66206;0.000;0.000;2023-08-07T00:13:55;97188.63;;;22.47;33.79
77212;BME280;66206;0.000;0.000;2023-08-07T00:16:22;97186.86;;;22.43;33.75
77212;BME280;66206;0.000;0.000;2023-08-07T00:18:48;97190.82;;;22.25;33.89
77212;BME280;66206;0.000;0.000;2023-08-07T00:21:15;97185.82;;;22.36;33.84
77212;BME280;66206;0.000;0.000;2023-08-07T00:23:42;97187.12;;;22.42;33.73
77212;BME280;66206;0.000;0.000;2023-08-07T00:26:09;97187.72;;;22.41;33.81
77212;BME280;66206;0.000;0.000;2023-08-07T00:28:35;97189.53;;;22.45;33.74
77212;BME280;66206;0.000;0.000;2023-08-07T00:31:02;97194.74;;;22.36;33.82
77212;BME280;66206;0.000;0.000;2023-08-07T00:33:29;97195.82;;;22.20;33.88
77212;BME280;66206;0.000;0.000;2023-08-07T00:35:56;97189.65;;;22.60;33.67
77212;BME280;66206;0.000;0.000;2023-08-07T00:38:22;97189.67;;;22.38;33.77
77212;BME280;66206;0.000;0.000;2023-08-07T00:40:49;97194.90;;;22.35;33.85
77212;BME280;66206;0.000;0.000;2023-08-07T00:43:16;97201.43;;;22.37;33.87
77212;BME280;66206;0.000;0.000;2023-08-07T00:45:43;97190.52;;;22.41;33.66
77212;BME280;66206;0.000;0.000;2023-08-07T00:48:11;97197.22;;;22.30;33.96
77212;BME280;66206;0.000;0.000;2023-08-07T00:50:38;97200.32;;;22.36;33.86
77212;BME280;66206;0.000;0.000;2023-08-07T00:53:06;97201.05;;;22.46;33.85
77212;BME280;66206;0.000;0.000;2023-08-07T00:55:33;97195.48;;;22.24;33.94
77212;BME280;66206;0.000;0.000;2023-08-07T00:58:00;97199.71;;;22.54;33.74
77212;BME280;66206;0.000;0.000;2023-08-07T01:00:27;97209.45;;;22.32;33.90
77212;BME280;66206;0.000;0.000;2023-08-07T01:02:55;97211.18;;;22.39;33.88
77212;BME280;66206;0.000;0.000;2023-08-07T01:05:22;97206.16;;;22.31;33.92
77212;BME280;66206;0.000;0.000;2023-08-07T01:07:49;97210.35;;;22.22;34.01
77212;BME280;66206;0.000;0.000;2023-08-07T01:10:16;97209.60;;;22.16;34.10
77212;BME280;66206;0.000;0.000;2023-08-07T01:12:45;97204.64;;;22.31;33.87
77212;BME280;66206;0.000;0.000;2023-08-07T01:15:10;97214.09;;;22.39;33.94
77212;BME280;66206;0.000;0.000;2023-08-07T01:17:39;97216.89;;;22.45;33.79
77212;BME280;66206;0.000;0.000;2023-08-07T01:20:06;97214.57;;;22.73;33.27
77212;BME280;66206;0.000;0.000;2023-08-07T01:22:33;97213.89;;;22.98;33.09
77212;BME280;66206;0.000;0.000;2023-08-07T01:25:00;97213.31;;;23.01;32.82
77212;BME280;66206;0.000;0.000;2023-08-07T01:27:30;97224.37;;;23.16;32.72
77212;BME280;66206;0.000;0.000;2023-08-07T01:29:54;97222.75;;;23.09;32.82
77212;BME280;66206;0.000;0.000;2023-08-07T01:32:24;97214.47;;;23.00;32.91
77212;BME280;66206;0.000;0.000;2023-08-07T01:34:52;97221.59;;;22.94;32.94
77212;BME280;66206;0.000;0.000;2023-08-07T01:37:21;97229.04;;;22.99;32.98
77212;BME280;66206;0.000;0.000;2023-08-07T01:39:49;97227.21;;;23.28;32.71
77212;BME280;66206;0.000;0.000;2023-08-07T01:42:17;97230.24;;;23.07;32.93
77212;BME280;66206;0.000;0.000;2023-08-07T01:44:44;97235.70;;;23.19;32.81
77212;BME280;66206;0.000;0.000;2023-08-07T01:47:11;97232.97;;;23.33;32.64
77212;BME280;66206;0.000;0.000;2023-08-07T01:49:38;97240.87;;;23.25;32.70
77212;BME280;66206;0.000;0.000;2023-08-07T01:52:05;97241.26;;;23.26;32.69
77212;BME280;66206;0.000;0.000;2023-08-07T01:54:32;97237.46;;;22.93;33.06
77212;BME280;66206;0.000;0.000;2023-08-07T01:56:59;97249.78;;;22.96;32.97
77212;BME280;66206;0.000;0.000;2023-08-07T01:59:26;97250.49;;;23.29;32.64
77212;BME280;66206;0.000;0.000;2023-08-07T02:01:52;97252.59;;;23.29;32.52
77212;BME280;66206;0.000;0.000;2023-08-07T02:04:19;97256.11;;;23.39;32.46
77212;BME280;66206;0.000;0.000;2023-08-07T02:06:46;97252.49;;;23.23;32.73
77212;BME280;66206;0.000;0.000;2023-08-07T02:09:13;97253.89;;;23.23;32.70
77212;BME280;66206;0.000;0.000;2023-08-07T02:11:39;97261.50;;;23.43;32.40
77212;BME280;66206;0.000;0.000;2023-08-07T02:14:06;97261.64;;;23.21;32.54
77212;BME280;66206;0.000;0.000;2023-08-07T02:16:33;97264.79;;;23.12;32.66
77212;BME280;66206;0.000;0.000;2023-08-07T02:18:59;97268.60;;;23.16;32.84
77212;BME280;66206;0.000;0.000;2023-08-07T02:21:26;97268.13;;;22.83;33.27
77212;BME280;66206;0.000;0.000;2023-08-07T02:23:53;97263.39;;;23.50;32.38
77212;BME280;66206;0.000;0.000;2023-08-07T02:26:20;97272.50;;;23.42;32.54
77212;BME280;66206;0.000;0.000;2023-08-07T02:28:46;97265.95;;;23.45;32.36
77212;BME280;66206;0.000;0.000;2023-08-07T02:31:13;97277.07;;;23.21;32.79
77212;BME280;66206;0.000;0.000;2023-08-07T02:33:40;97284.28;;;23.01;32.88
77212;BME280;66206;0.000;0.000;2023-08-07T02:36:07;97276.33;;;23.12;32.67
77212;BME280;66206;0.000;0.000;2023-08-07T02:38:34;97291.50;;;23.12;32.80
77212;BME280;66206;0.000;0.000;2023-08-07T02:41:01;97284.39;;;23.35;32.52
77212;BME280;66206;0.000;0.000;2023-08-07T02:43:27;97278.39;;;23.38;32.42
77212;BME280;66206;0.000;0.000;2023-08-07T02:45:54;97286.70;;;23.22;32.56
77212;BME280;66206;0.000;0.000;2023-08-07T02:48:21;97282.59;;;23.15;32.60
77212;BME280;66206;0.000;0.000;2023-08-07T02:50:48;97289.28;;;23.26;32.51
77212;BME280;66206;0.000;0.000;2023-08-07T02:53:14;97297.54;;;23.27;32.55
77212;BME280;66206;0.000;0.000;2023-08-07T02:55:42;97295.94;;;23.22;32.48
77212;BME280;66206;0.000;0.000;2023-08-07T02:58:09;97297.24;;;23.28;32.54
77212;BME280;66206;0.000;0.000;2023-08-07T03:00:36;97306.66;;;23.14;32.54
77212;BME280;66206;0.000;0.000;2023-08-07T03:03:02;97288.58;;;23.18;32.55
77212;BME280;66206;0.000;0.000;2023-08-07T03:05:29;97300.84;;;23.31;32.45
77212;BME280;66206;0.000;0.000;2023-08-07T03:07:56;97304.02;;;23.21;32.44
77212;BME280;66206;0.000;0.000;2023-08-07T03:10:23;97312.64;;;23.15;32.62
77212;BME280;66206;0.000;0.000;2023-08-07T03:12:49;97316.20;;;22.92;32.87
77212;BME280;66206;0.000;0.000;2023-08-07T03:15:16;97313.66;;;23.20;32.44
77212;BME280;66206;0.000;0.000;2023-08-07T03:17:43;97317.25;;;23.06;32.71
77212;BME280;66206;0.000;0.000;2023-08-07T03:20:10;97319.92;;;23.07;32.63
77212;BME280;66206;0.000;0.000;2023-08-07T03:22:37;97314.05;;;23.19;32.49
77212;BME280;66206;0.000;0.000;2023-08-07T03:25:04;97324.57;;;23.13;32.51
77212;BME280;66206;0.000;0.000;2023-08-07T03:27:31;97328.11;;;23.29;32.42
77212;BME280;66206;0.000;0.000;2023-08-07T03:29:57;97330.46;;;23.14;32.56
77212;BME280;66206;0.000;0.000;2023-08-07T03:32:24;97326.57;;;23.09;32.57
77212;BME280;66206;0.000;0.000;2023-08-07T03:34:51;97327.95;;;23.34;32.19
77212;BME280;66206;0.000;0.000;2023-08-07T03:37:18;97333.35;;;23.25;32.35
77212;BME280;66206;0.000;0.000;2023-08-07T03:39:44;97339.56;;;22.83;32.76
77212;BME280;66206;0.000;0.000;2023-08-07T03:42:11;97339.26;;;23.13;32.58
77212;BME280;66206;0.000;0.000;2023-08-07T03:44:38;97349.83;;;23.05;32.61
77212;BME280;66206;0.000;0.000;2023-08-07T03:47:05;97346.62;;;23.36;32.22
77212;BME280;66206;0.000;0.000;2023-08-07T03:49:32;97350.50;;;23.10;32.39
77212;BME280;66206;0.000;0.000;2023-08-07T03:51:59;97351.89;;;22.80;32.80
77212;BME280;66206;0.000;0.000;2023-08-07T03:54:25;97354.44;;;22.55;33.19
77212;BME280;66206;0.000;0.000;2023-08-07T03:56:52;97364.23;;;22.88;32.87
77212;BME280;66206;0.000;0.000;2023-08-07T03:59:19;97360.95;;;22.92;32.70
77212;BME280;66206;0.000;0.000;2023-08-07T04:01:46;97368.69;;;22.90;32.69
77212;BME280;66206;0.000;0.000;2023-08-07T04:04:12;97368.84;;;22.97;32.47
77212;BME280;66206;0.000;0.000;2023-08-07T04:06:39;97374.17;;;23.01;32.57
77212;BME280;66206;0.000;0.000;2023-08-07T04:09:06;97372.96;;;23.30;32.17
77212;BME280;66206;0.000;0.000;2023-08-07T04:11:32;97375.91;;;22.88;32.55
77212;BME280;66206;0.000;0.000;2023-08-07T04:13:59;97382.19;;;23.10;32.27
77212;BME280;66206;0.000;0.000;2023-08-07T04:16:26;97380.44;;;23.06;32.49
77212;BME280;66206;0.000;0.000;2023-08-07T04:18:53;97376.95;;;23.12;32.39
77212;BME280;66206;0.000;0.000;2023-08-07T04:21:20;97388.92;;;23.04;32.48
77212;BME280;66206;0.000;0.000;2023-08-07T04:23:46;97388.92;;;22.91;32.61
77212;BME280;66206;0.000;0.000;2023-08-07T04:26:13;97395.79;;;23.28;32.11
77212;BME280;66206;0.000;0.000;2023-08-07T04:28:40;97394.39;;;23.30;32.10
77212;BME280;66206;0.000;0.000;2023-08-07T04:31:07;97403.39;;;23.02;32.26
77212;BME280;66206;0.000;0.000;2023-08-07T04:33:33;97400.97;;;23.14;32.21
77212;BME280;66206;0.000;0.000;2023-08-07T04:36:00;97402.82;;;23.08;32.39
77212;BME280;66206;0.000;0.000;2023-08-07T04:38:27;97410.27;;;22.94;32.47
77212;BME280;66206;0.000;0.000;2023-08-07T04:40:53;97410.72;;;22.88;32.59
77212;BME280;66206;0.000;0.000;2023-08-07T04:43:20;97417.45;;;23.09;32.29
77212;BME280;66206;0.000;0.000;2023-08-07T04:45:47;97423.08;;;22.89;32.49
77212;BME280;66206;0.000;0.000;2023-08-07T04:48:14;97417.14;;;22.93;32.50
77212;BME280;66206;0.000;0.000;2023-08-07T04:50:41;97421.74;;;22.80;32.72
77212;BME280;66206;0.000;0.000;2023-08-07T04:53:08;97425.90;;;22.98;32.41
77212;BME280;66206;0.000;0.000;2023-08-07T04:55:35;97422.60;;;23.10;32.28
77212;BME280;66206;0.000;0.000;2023-08-07T04:58:01;97425.23;;;22.94;32.53
77212;BME280;66206;0.000;0.000;2023-08-07T05:00:28;97427.78;;;22.88;32.41
77212;BME280;66206;0.000;0.000;2023-08-07T05:02:55;97426.44;;;22.56;32.89
77212;BME280;66206;0.000;0.000;2023-08-07T05:05:22;97430.56;;;23.11;32.38
77212;BME280;66206;0.000;0.000;2023-08-07T05:07:49;97428.12;;;22.76;32.54
77212;BME280;66206;0.000;0.000;2023-08-07T05:10:16;97428.93;;;23.13;32.20
77212;BME280;66206;0.000;0.000;2023-08-07T05:12:42;97428.13;;;22.68;32.78
77212;BME280;66206;0.000;0.000;2023-08-07T05:15:09;97433.98;;;22.93;32.29
77212;BME280;66206;0.000;0.000;2023-08-07T05:17:36;97434.50;;;22.73;32.58
77212;BME280;66206;0.000;0.000;2023-08-07T05:20:03;97436.76;;;23.13;32.07
77212;BME280;66206;0.000;0.000;2023-08-07T05:22:30;97443.79;;;22.83;32.40
77212;BME280;66206;0.000;0.000;2023-08-07T05:24:57;97439.42;;;22.75;32.51
77212;BME280;66206;0.000;0.000;2023-08-07T05:27:24;97441.76;;;23.08;32.23
77212;BME280;66206;0.000;0.000;2023-08-07T05:29:50;97443.96;;;23.01;32.21
77212;BME280;66206;0.000;0.000;2023-08-07T05:32:17;97447.02;;;22.93;32.32
77212;BME280;66206;0.000;0.000;2023-08-07T05:34:44;97452.39;;;22.80;32.49
77212;BME280;66206;0.000;0.000;2023-08-07T05:37:11;97449.95;;;23.05;32.18
77212;BME280;66206;0.000;0.000;2023-08-07T05:39:37;97454.41;;;23.01;32.37
77212;BME280;66206;0.000;0.000;2023-08-07T05:42:04;97456.85;;;22.76;32.55
77212;BME280;66206;0.000;0.000;2023-08-07T05:44:31;97459.41;;;22.74;32.50
77212;BME280;66206;0.000;0.000;2023-08-07T05:46:58;97455.06;;;22.98;32.21
77212;BME280;66206;0.000;0.000;2023-08-07T05:49:25;97462.22;;;23.20;31.87
77212;BME280;66206;0.000;0.000;2023-08-07T05:51:51;97461.09;;;22.99;32.06
77212;BME280;66206;0.000;0.000;2023-08-07T05:54:18;97462.98;;;23.09;31.86
77212;BME280;66206;0.000;0.000;2023-08-07T05:56:45;97466.34;;;23.07;31.99
77212;BME280;66206;0.000;0.000;2023-08-07T05:59:12;97472.08;;;22.79;32.30
77212;BME280;66206;0.000;0.000;2023-08-07T06:01:38;97465.72;;;23.06;31.92
77212;BME280;66206;0.000;0.000;2023-08-07T06:04:05;97469.10;;;22.78;32.24
77212;BME280;66206;0.000;0.000;2023-08-07T06:06:32;97482.35;;;23.12;31.73
77212;BME280;66206;0.000;0.000;2023-08-07T06:08:59;97480.27;;;22.91;32.04
77212;BME280;66206;0.000;0.000;2023-08-07T06:11:26;97480.93;;;22.95;32.03
77212;BME280;66206;0.000;0.000;2023-08-07T06:13:52;97482.48;;;22.91;32.09
77212;BME280;66206;0.000;0.000;2023-08-07T06:16:19;97483.92;;;22.95;32.05
77212;BME280;66206;0.000;0.000;2023-08-07T06:18:46;97485.62;;;22.95;32.02
77212;BME280;66206;0.000;0.000;2023-08-07T06:21:13;97476.73;;;23.06;31.90
77212;BME280;66206;0.000;0.000;2023-08-07T06:23:39;97481.52;;;23.17;31.80
77212;BME280;66206;0.000;0.000;2023-08-07T06:26:06;97481.92;;;23.10;31.78
77212;BME280;66206;0.000;0.000;2023-08-07T06:28:33;97494.80;;;23.24;31.66
77212;BME280;66206;0.000;0.000;2023-08-07T06:31:00;97488.48;;;23.01;31.87
77212;BME280;66206;0.000;0.000;2023-08-07T06:33:27;97494.13;;;22.89;31.97
77212;BME280;66206;0.000;0.000;2023-08-07T06:35:54;97499.36;;;22.71;32.30
77212;BME280;66206;0.000;0.000;2023-08-07T06:38:21;97495.69;;;23.04;31.86
77212;BME280;66206;0.000;0.000;2023-08-07T06:40:47;97499.96;;;22.60;32.28
77212;BME280;66206;0.000;0.000;2023-08-07T06:43:14;97501.65;;;23.00;32.06
77212;BME280;66206;0.000;0.000;2023-08-07T06:45:41;97503.50;;;22.93;32.01
77212;BME280;66206;0.000;0.000;2023-08-07T06:48:08;97507.00;;;22.36;32.59
77212;BME280;66206;0.000;0.000;2023-08-07T06:50:37;97506.26;;;22.33;32.68
77212;BME280;66206;0.000;0.000;2023-08-07T06:53:04;97518.71;;;21.93;33.02
77212;BME280;66206;0.000;0.000;2023-08-07T06:55:30;97513.83;;;22.05;32.88
77212;BME280;66206;0.000;0.000;2023-08-07T06:57:57;97517.91;;;21.95;32.99
77212;BME280;66206;0.000;0.000;2023-08-07T07:00:24;97514.32;;;22.11;32.90
77212;BME280;66206;0.000;0.000;2023-08-07T07:02:51;97516.78;;;22.24;32.55
77212;BME280;66206;0.000;0.000;2023-08-07T07:05:18;97521.94;;;22.20;32.92
77212;BME280;66206;0.000;0.000;2023-08-07T07:07:45;97517.77;;;22.15;32.74
77212;BME280;66206;0.000;0.000;2023-08-07T07:10:11;97513.31;;;22.37;32.61
77212;BME280;66206;0.000;0.000;2023-08-07T07:12:38;97521.42;;;22.26;32.64
77212;BME280;66206;0.000;0.000;2023-08-07T07:15:05;97521.54;;;22.02;32.76
77212;BME280;66206;0.000;0.000;2023-08-07T07:17:32;97535.03;;;22.25;32.56
77212;BME280;66206;0.000;0.000;2023-08-07T07:19:59;97532.91;;;22.09;32.65
77212;BME280;66206;0.000;0.000;2023-08-07T07:22:26;97532.43;;;22.03;32.80
77212;BME280;66206;0.000;0.000;2023-08-07T07:24:52;97537.01;;;22.26;32.54
77212;BME280;66206;0.000;0.000;2023-08-07T07:27:19;97539.28;;;22.46;32.32
77212;BME280;66206;0.000;0.000;2023-08-07T07:29:46;97553.06;;;22.69;31.88
77212;BME280;66206;0.000;0.000;2023-08-07T07:32:13;97552.99;;;22.34;32.31
77212;BME280;66206;0.000;0.000;2023-08-07T07:34:40;97563.26;;;22.34;32.40
77212;BME280;66206;0.000;0.000;2023-08-07T07:37:07;97555.78;;;22.52;31.93
77212;BME280;66206;0.000;0.000;2023-08-07T07:39:34;97558.21;;;22.49;31.89
77212;BME280;66206;0.000;0.000;2023-08-07T07:42:00;97558.14;;;22.59;31.98
77212;BME280;66206;0.000;0.000;2023-08-07T07:44:27;97559.20;;;22.50;31.93
77212;BME280;66206;0.000;0.000;2023-08-07T07:46:54;97563.69;;;22.89;31.44
77212;BME280;66206;0.000;0.000;2023-08-07T07:49:21;97568.27;;;22.64;31.70
77212;BME280;66206;0.000;0.000;2023-08-07T07:51:48;97573.23;;;23.12;31.01
77212;BME280;66206;0.000;0.000;2023-08-07T07:54:14;97574.46;;;22.49;31.66
77212;BME280;66206;0.000;0.000;2023-08-07T07:56:41;97580.07;;;22.53;31.76
77212;BME280;66206;0.000;0.000;2023-08-07T07:59:08;97578.97;;;22.95;31.34
77212;BME280;66206;0.000;0.000;2023-08-07T08:01:35;97584.57;;;22.85;31.43
77212;BME280;66206;0.000;0.000;2023-08-07T08:04:02;97588.21;;;22.39;31.84
77212;BME280;66206;0.000;0.000;2023-08-07T08:06:29;97589.50;;;22.93;31.57
77212;BME280;66206;0.000;0.000;2023-08-07T08:08:55;97598.73;;;22.06;32.51
77212;BME280;66206;0.000;0.000;2023-08-07T08:11:22;97600.34;;;22.20;32.33
77212;BME280;66206;0.000;0.000;2023-08-07T08:13:49;97602.67;;;22.07;32.56
77212;BME280;66206;0.000;0.000;2023-08-07T08:16:16;97608.92;;;22.46;32.03
77212;BME280;66206;0.000;0.000;2023-08-07T08:18:42;97611.80;;;22.76;31.58
77212;BME280;66206;0.000;0.000;2023-08-07T08:21:09;97618.87;;;22.20;32.17
77212;BME280;66206;0.000;0.000;2023-08-07T08:23:36;97617.21;;;22.28;31.89
77212;BME280;66206;0.000;0.000;2023-08-07T08:26:03;97619.83;;;22.64;31.61
77212;BME280;66206;0.000;0.000;2023-08-07T08:28:29;97621.89;;;22.49;31.77
77212;BME280;66206;0.000;0.000;2023-08-07T08:30:56;97627.00;;;22.38;31.87
77212;BME280;66206;0.000;0.000;2023-08-07T08:33:23;97627.33;;;22.48;31.82
77212;BME280;66206;0.000;0.000;2023-08-07T08:35:50;97630.23;;;22.23;32.10
77212;BME280;66206;0.000;0.000;2023-08-07T08:38:16;97632.44;;;22.26;31.93
77212;BME280;66206;0.000;0.000;2023-08-07T08:40:43;97627.84;;;21.87;32.38
77212;BME280;66206;0.000;0.000;2023-08-07T08:43:10;97639.74;;;22.21;31.96
77212;BME280;66206;0.000;0.000;2023-08-07T08:45:39;97645.63;;;22.61;31.37
77212;BME280;66206;0.000;0.000;2023-08-07T08:48:07;97645.18;;;22.20;32.01
77212;BME280;66206;0.000;0.000;2023-08-07T08:50:34;97649.09;;;22.29;31.79
77212;BME280;66206;0.000;0.000;2023-08-07T08:53:01;97652.02;;;21.94;32.29
77212;BME280;66206;0.000;0.000;2023-08-07T08:55:29;97651.97;;;22.10;32.04
77212;BME280;66206;0.000;0.000;2023-08-07T08:57:56;97650.69;;;22.40;32.11
77212;BME280;66206;0.000;0.000;2023-08-07T09:00:23;97648.33;;;22.02;32.26
77212;BME280;66206;0.000;0.000;2023-08-07T09:02:51;97656.73;;;21.95;32.27
77212;BME280;66206;0.000;0.000;2023-08-07T09:05:19;97658.76;;;21.71;32.32
77212;BME280;66206;0.000;0.000;2023-08-07T09:07:46;97658.46;;;22.04;32.03
77212;BME280;66206;0.000;0.000;2023-08-07T09:10:14;97664.99;;;21.89;32.19
77212;BME280;66206;0.000;0.000;2023-08-07T09:12:42;97670.38;;;21.91;32.15
77212;BME280;66206;0.000;0.000;2023-08-07T09:15:11;97675.47;;;22.02;32.15
77212;BME280;66206;0.000;0.000;2023-08-07T09:17:41;97668.76;;;21.86;32.36
77212;BME280;66206;0.000;0.000;2023-08-07T09:20:09;97668.47;;;22.18;31.81
77212;BME280;66206;0.000;0.000;2023-08-07T09:22:36;97668.94;;;22.17;31.78
77212;BME280;66206;0.000;0.000;2023-08-07T09:25:03;97673.45;;;22.57;31.34
77212;BME280;66206;0.000;0.000;2023-08-07T09:27:30;97672.85;;;22.10;31.60
77212;BME280;66206;0.000;0.000;2023-08-07T09:29:57;97671.60;;;21.89;31.82
77212;BME280;66206;0.000;0.000;2023-08-07T09:32:24;97676.87;;;22.08;31.72
77212;BME280;66206;0.000;0.000;2023-08-07T09:34:51;97681.79;;;22.13;31.71
77212;BME280;66206;0.000;0.000;2023-08-07T09:37:18;97676.94;;;21.86;32.03
77212;BME280;66206;0.000;0.000;2023-08-07T09:39:44;97681.98;;;22.35;31.43
77212;BME280;66206;0.000;0.000;2023-08-07T09:42:13;97692.72;;;21.76;32.08
77212;BME280;66206;0.000;0.000;2023-08-07T09:44:40;97694.37;;;21.92;32.17
77212;BME280;66206;0.000;0.000;2023-08-07T09:47:11;97692.64;;;21.88;32.05
77212;BME280;66206;0.000;0.000;2023-08-07T09:49:33;97697.92;;;22.27;31.72
77212;BME280;66206;0.000;0.000;2023-08-07T09:51:59;97708.27;;;21.81;32.19
77212;BME280;66206;0.000;0.000;2023-08-07T09:54:26;97702.29;;;22.32;31.40
77212;BME280;66206;0.000;0.000;2023-08-07T09:56:54;97705.56;;;21.96;31.90
77212;BME280;66206;0.000;0.000;2023-08-07T09:59:21;97711.57;;;22.24;31.57
77212;BME280;66206;0.000;0.000;2023-08-07T10:01:48;97706.30;;;22.12;31.86
77212;BME280;66206;0.000;0.000;2023-08-07T10:04:15;97712.93;;;21.87;32.09
77212;BME280;66206;0.000;0.000;2023-08-07T10:06:43;97716.72;;;22.46;31.40
77212;BME280;66206;0.000;0.000;2023-08-07T10:09:10;97721.40;;;22.38;31.52
77212;BME280;66206;0.000;0.000;2023-08-07T10:11:37;97721.54;;;21.90;32.14
77212;BME280;66206;0.000;0.000;2023-08-07T10:14:05;97721.06;;;21.91;32.14
77212;BME280;66206;0.000;0.000;2023-08-07T10:16:31;97724.80;;;22.02;32.01
77212;BME280;66206;0.000;0.000;2023-08-07T10:18:58;97726.50;;;22.30;31.60
77212;BME280;66206;0.000;0.000;2023-08-07T10:21:25;97728.80;;;22.43;31.60
77212;BME280;66206;0.000;0.000;2023-08-07T10:23:53;97725.13;;;22.28;31.69
77212;BME280;66206;0.000;0.000;2023-08-07T10:26:20;97728.84;;;22.27;31.52
77212;BME280;66206;0.000;0.000;2023-08-07T10:28:48;97735.55;;;21.89;32.08
77212;BME280;66206;0.000;0.000;2023-08-07T10:31:16;97737.55;;;22.04;32.03
77212;BME280;66206;0.000;0.000;2023-08-07T10:33:44;97744.48;;;21.95;32.14
77212;BME280;66206;0.000;0.000;2023-08-07T10:36:11;97743.45;;;21.66;32.27
77212;BME280;66206;0.000;0.000;2023-08-07T10:38:38;97739.63;;;22.25;31.46
77212;BME280;66206;0.000;0.000;2023-08-07T10:41:06;97743.38;;;21.98;31.64
77212;BME280;66206;0.000;0.000;2023-08-07T10:43:36;97743.64;;;22.38;31.33
77212;BME280;66206;0.000;0.000;2023-08-07T10:46:03;97744.33;;;22.05;31.51
77212;BME280;66206;0.000;0.000;2023-08-07T10:48:31;97749.71;;;22.82;30.79
77212;BME280;66206;0.000;0.000;2023-08-07T10:51:02;97749.20;;;23.01;30.62
77212;BME280;66206;0.000;0.000;2023-08-07T10:53:28;97751.71;;;23.18;30.41
77212;BME280;66206;0.000;0.000;2023-08-07T10:55:50;97749.83;;;23.63;30.01
77212;BME280;66206;0.000;0.000;2023-08-07T10:58:25;97752.94;;;23.52;30.08
77212;BME280;66206;0.000;0.000;2023-08-07T11:00:47;97759.46;;;23.90;29.71
77212;BME280;66206;0.000;0.000;2023-08-07T11:03:19;97758.44;;;23.68;29.97
77212;BME280;66206;0.000;0.000;2023-08-07T11:05:41;97756.86;;;23.55;30.24
77212;BME280;66206;0.000;0.000;2023-08-07T11:08:08;97758.36;;;23.48;30.45
77212;BME280;66206;0.000;0.000;2023-08-07T11:10:35;97758.73;;;23.70;30.09
77212;BME280;66206;0.000;0.000;2023-08-07T11:13:02;97759.91;;;23.88;29.98
77212;BME280;66206;0.000;0.000;2023-08-07T11:15:29;97760.95;;;23.91;30.09
77212;BME280;66206;0.000;0.000;2023-08-07T11:17:56;97763.04;;;23.55;30.29
77212;BME280;66206;0.000;0.000;2023-08-07T11:20:23;97758.33;;;23.56;30.38
77212;BME280;66206;0.000;0.000;2023-08-07T11:22:51;97763.41;;;23.95;30.14
77212;BME280;66206;0.000;0.000;2023-08-07T11:25:18;97762.14;;;23.72;30.33
77212;BME280;66206;0.000;0.000;2023-08-07T11:27:45;97761.47;;;23.73;30.47
77212;BME280;66206;0.000;0.000;2023-08-07T11:30:12;97757.68;;;23.29;30.82
77212;BME280;66206;0.000;0.000;2023-08-07T11:32:39;97760.51;;;23.48;30.47
77212;BME280;66206;0.000;0.000;2023-08-07T11:35:06;97767.47;;;23.72;30.26
77212;BME280;66206;0.000;0.000;2023-08-07T11:37:33;97755.14;;;24.14;30.00
77212;BME280;66206;0.000;0.000;2023-08-07T11:40:00;97761.00;;;23.82;30.06
77212;BME280;66206;0.000;0.000;2023-08-07T11:42:27;97761.85;;;23.92;30.15
77212;BME280;66206;0.000;0.000;2023-08-07T11:44:54;97764.40;;;23.39;30.56
77212;BME280;66206;0.000;0.000;2023-08-07T11:47:21;97770.02;;;23.50;30.46
77212;BME280;66206;0.000;0.000;2023-08-07T11:49:48;97769.81;;;23.74;30.22
77212;BME280;66206;0.000;0.000;2023-08-07T11:52:15;97777.84;;;23.19;31.11
77212;BME280;66206;0.000;0.000;2023-08-07T11:54:42;97781.84;;;23.59;30.54
77212;BME280;66206;0.000;0.000;2023-08-07T11:57:14;97779.49;;;24.21;29.92
77212;BME280;66206;0.000;0.000;2023-08-07T11:59:36;97778.28;;;23.87;30.09
77212;BME280;66206;0.000;0.000;2023-08-07T12:02:08;97781.35;;;23.70;30.56
77212;BME280;66206;0.000;0.000;2023-08-07T12:04:30;97785.96;;;23.65;30.42
77212;BME280;66206;0.000;0.000;2023-08-07T12:06:57;97788.71;;;23.65;30.39
77212;BME280;66206;0.000;0.000;2023-08-07T12:09:25;97792.86;;;23.76;30.45
77212;BME280;66206;0.000;0.000;2023-08-07T12:11:55;97790.50;;;23.88;30.33
77212;BME280;66206;0.000;0.000;2023-08-07T12:14:22;97790.55;;;23.50;30.94
77212;BME280;66206;0.000;0.000;2023-08-07T12:16:49;97801.24;;;23.46;30.84
77212;BME280;66206;0.000;0.000;2023-08-07T12:19:15;97801.75;;;24.00;30.12
77212;BME280;66206;0.000;0.000;2023-08-07T12:21:42;97795.76;;;23.43;30.63
77212;BME280;66206;0.000;0.000;2023-08-07T12:24:09;97793.07;;;23.74;30.38
77212;BME280;66206;0.000;0.000;2023-08-07T12:26:36;97796.01;;;23.18;31.04
77212;BME280;66206;0.000;0.000;2023-08-07T12:29:03;97802.64;;;23.26;30.88
77212;BME280;66206;0.000;0.000;2023-08-07T12:31:29;97798.64;;;23.60;30.48
77212;BME280;66206;0.000;0.000;2023-08-07T12:33:56;97796.23;;;23.98;30.14
77212;BME280;66206;0.000;0.000;2023-08-07T12:36:23;97796.42;;;23.85;30.10
77212;BME280;66206;0.000;0.000;2023-08-07T12:38:50;97808.10;;;23.48;30.73
77212;BME280;66206;0.000;0.000;2023-08-07T12:41:16;97804.18;;;24.19;29.77
77212;BME280;66206;0.000;0.000;2023-08-07T12:43:43;97813.04;;;23.63;30.46
77212;BME280;66206;0.000;0.000;2023-08-07T12:46:10;97814.96;;;23.54;30.94
77212;BME280;66206;0.000;0.000;2023-08-07T12:48:37;97821.96;;;24.19;29.90
77212;BME280;66206;0.000;0.000;2023-08-07T12:51:04;97817.43;;;23.46;30.56
77212;BME280;66206;0.000;0.000;2023-08-07T12:53:30;97817.73;;;23.71;30.48
77212;BME280;66206;0.000;0.000;2023-08-07T12:55:57;97814.22;;;24.42;29.57
77212;BME280;66206;0.000;0.000;2023-08-07T12:58:24;97822.94;;;23.88;30.18
77212;BME280;66206;0.000;0.000;2023-08-07T13:00:51;97824.27;;;23.98;30.16
77212;BME280;66206;0.000;0.000;2023-08-07T13:03:18;97818.05;;;23.97;30.11
77212;BME280;66206;0.000;0.000;2023-08-07T13:05:44;97826.69;;;23.87;30.27
77212;BME280;66206;0.000;0.000;2023-08-07T13:08:11;97822.87;;;24.06;30.26